createdAt,value
2023-05-06T00:00:52.395Z,45.92
2023-05-06T00:01:52.394Z,45.60
2023-05-06T00:02:52.453Z,45.60
2023-05-06T00:03:52.571Z,46.41
2023-05-06T00:04:52.455Z,46.25
2023-05-06T00:05:52.370Z,51.40
2023-05-06T00:06:52.362Z,49.31
2023-05-06T00:07:52.364Z,45.60
2023-05-06T00:08:52.358Z,49.47
2023-05-06T00:09:52.366Z,49.79
2023-05-06T00:10:52.343Z,46.41
2023-05-06T00:11:52.350Z,45.92
2023-05-06T00:12:52.375Z,45.44
2023-05-06T00:13:52.381Z,45.60
2023-05-06T00:14:52.312Z,46.41
2023-05-06T00:15:52.340Z,45.60
2023-05-06T00:16:52.431Z,46.08
2023-05-06T00:17:52.311Z,46.73
2023-05-06T00:18:52.311Z,46.57
2023-05-06T00:19:52.297Z,47.86
2023-05-06T00:20:52.284Z,46.25
2023-05-06T00:21:52.270Z,45.92
2023-05-06T00:22:52.264Z,46.73
2023-05-06T00:23:52.259Z,45.92
2023-05-06T00:24:52.259Z,48.34
2023-05-06T00:25:52.242Z,47.21
2023-05-06T00:26:52.240Z,46.57
2023-05-06T00:27:52.229Z,46.89
2023-05-06T00:28:52.283Z,46.08
2023-05-06T00:29:52.219Z,45.92
2023-05-06T00:30:52.215Z,46.08
2023-05-06T00:31:52.253Z,46.57
2023-05-06T00:32:52.319Z,44.96
2023-05-06T00:33:52.213Z,45.92
2023-05-06T00:34:52.194Z,45.92
2023-05-06T00:35:52.197Z,45.92
2023-05-06T00:36:52.184Z,45.92
2023-05-06T00:37:52.172Z,45.60
2023-05-06T00:38:52.162Z,46.41
2023-05-06T00:39:52.191Z,45.92
2023-05-06T00:40:52.150Z,45.92
2023-05-06T00:41:52.161Z,45.92
2023-05-06T00:42:52.149Z,46.73
2023-05-06T00:43:52.164Z,46.41
2023-05-06T00:44:52.143Z,45.60
2023-05-06T00:45:52.213Z,45.28
2023-05-06T00:46:52.132Z,45.92
2023-05-06T00:47:52.161Z,47.70
2023-05-06T00:48:52.175Z,45.92
2023-05-06T00:49:52.106Z,45.60
2023-05-06T00:50:52.090Z,45.76
2023-05-06T00:51:52.089Z,45.60
2023-05-06T00:52:52.089Z,45.60
2023-05-06T00:53:52.078Z,45.92
2023-05-06T00:54:52.139Z,47.53
2023-05-06T00:55:52.051Z,46.08
2023-05-06T00:56:52.085Z,46.25
2023-05-06T00:57:52.101Z,49.47
2023-05-06T00:58:52.053Z,46.73
2023-05-06T00:59:52.036Z,47.86
2023-05-06T01:00:52.060Z,45.60
2023-05-06T01:01:52.053Z,45.92
2023-05-06T01:02:52.103Z,46.41
2023-05-06T01:03:52.111Z,45.76
2023-05-06T01:04:52.094Z,45.60
2023-05-06T01:05:52.012Z,45.60
2023-05-06T01:06:51.995Z,46.08
2023-05-06T01:07:51.992Z,47.05
2023-05-06T01:08:52.012Z,46.41
2023-05-06T01:09:52.004Z,49.95
2023-05-06T01:10:51.981Z,46.25
2023-05-06T01:11:52.009Z,45.28
2023-05-06T01:12:51.992Z,45.92
2023-05-06T01:13:51.959Z,46.41
2023-05-06T01:14:51.991Z,46.57
2023-05-06T01:15:51.948Z,46.57
2023-05-06T01:16:51.981Z,45.92
2023-05-06T01:17:52.015Z,46.73
2023-05-06T01:18:51.927Z,46.89
2023-05-06T01:19:51.939Z,46.41
2023-05-06T01:20:51.920Z,47.21
2023-05-06T01:21:51.916Z,48.66
2023-05-06T01:22:51.916Z,46.41
2023-05-06T01:23:51.912Z,46.57
2023-05-06T01:24:51.918Z,46.73
2023-05-06T01:25:51.892Z,46.41
2023-05-06T01:26:51.873Z,45.60
2023-05-06T01:27:51.883Z,46.25
2023-05-06T01:28:51.866Z,46.41
2023-05-06T01:29:51.869Z,46.41
2023-05-06T01:30:51.915Z,46.89
2023-05-06T01:31:51.838Z,46.57
2023-05-06T01:32:51.874Z,46.89
2023-05-06T01:33:51.831Z,48.34
2023-05-06T01:34:51.847Z,46.25
2023-05-06T01:35:51.848Z,45.60
2023-05-06T01:36:51.923Z,46.73
2023-05-06T01:37:51.826Z,46.73
2023-05-06T01:38:51.819Z,46.89
2023-05-06T01:39:51.808Z,46.89
2023-05-06T01:40:51.796Z,46.08
2023-05-06T01:41:51.785Z,46.89
2023-05-06T01:42:51.773Z,46.25
2023-05-06T01:43:51.786Z,46.25
2023-05-06T01:44:51.756Z,46.41
2023-05-06T01:45:51.791Z,46.41
2023-05-06T01:46:51.761Z,46.89
2023-05-06T01:47:51.772Z,45.92
2023-05-06T01:48:51.728Z,46.41
2023-05-06T01:49:51.736Z,46.25
2023-05-06T01:50:51.741Z,45.76
2023-05-06T01:51:51.733Z,45.60
2023-05-06T01:52:51.719Z,45.76
2023-05-06T01:53:51.700Z,47.53
2023-05-06T01:54:51.694Z,46.08
2023-05-06T01:55:51.703Z,46.73
2023-05-06T01:56:51.705Z,47.37
2023-05-06T01:57:51.686Z,45.76
2023-05-06T01:58:51.671Z,45.76
2023-05-06T01:59:51.724Z,46.25
2023-05-06T02:00:51.656Z,46.25
2023-05-06T02:01:51.661Z,46.73
2023-05-06T02:02:51.814Z,45.60
2023-05-06T02:03:51.821Z,46.25
2023-05-06T02:04:51.631Z,45.76
2023-05-06T02:05:51.628Z,46.08
2023-05-06T02:06:51.620Z,45.12
2023-05-06T02:07:51.621Z,45.28
2023-05-06T02:08:51.701Z,45.60
2023-05-06T02:09:51.620Z,45.76
2023-05-06T02:10:51.596Z,46.25
2023-05-06T02:11:51.608Z,47.21
2023-05-06T02:12:51.620Z,45.28
2023-05-06T02:13:51.628Z,47.21
2023-05-06T02:14:51.577Z,45.44
2023-05-06T02:15:51.624Z,45.92
2023-05-06T02:16:51.558Z,49.15
2023-05-06T02:17:51.608Z,45.60
2023-05-06T02:18:51.544Z,45.92
2023-05-06T02:19:51.592Z,46.41
2023-05-06T02:20:51.544Z,47.37
2023-05-06T02:21:51.543Z,47.05
2023-05-06T02:22:51.533Z,48.34
2023-05-06T02:23:51.522Z,48.18
2023-05-06T02:24:51.597Z,47.70
2023-05-06T02:25:51.511Z,46.73
2023-05-06T02:26:51.503Z,45.92
2023-05-06T02:27:51.499Z,46.25
2023-05-06T02:28:51.514Z,46.25
2023-05-06T02:29:51.528Z,47.21
2023-05-06T02:30:51.479Z,47.86
2023-05-06T02:31:51.514Z,46.89
2023-05-06T02:32:51.497Z,45.76
2023-05-06T02:33:51.463Z,45.76
2023-05-06T02:34:51.488Z,46.41
2023-05-06T02:35:51.449Z,46.57
2023-05-06T02:36:51.444Z,46.57
2023-05-06T02:37:51.434Z,45.60
2023-05-06T02:38:51.423Z,47.37
2023-05-06T02:39:51.455Z,48.98
2023-05-06T02:40:51.490Z,47.37
2023-05-06T02:41:51.402Z,48.82
2023-05-06T02:42:51.436Z,50.43
2023-05-06T02:43:51.393Z,49.15
2023-05-06T02:44:51.396Z,49.47
2023-05-06T02:45:51.440Z,49.31
2023-05-06T02:46:51.383Z,46.89
2023-05-06T02:47:51.420Z,46.89
2023-05-06T02:48:51.360Z,46.41
2023-05-06T02:49:51.361Z,48.50
2023-05-06T02:50:51.377Z,49.31
2023-05-06T02:51:51.338Z,49.95
2023-05-06T02:52:51.373Z,47.37
2023-05-06T02:53:51.332Z,47.37
2023-05-06T02:54:51.351Z,47.21
2023-05-06T02:55:51.346Z,47.37
2023-05-06T02:56:51.397Z,46.41
2023-05-06T02:57:51.318Z,47.53
2023-05-06T02:58:51.292Z,46.41
2023-05-06T02:59:51.288Z,47.86
2023-05-06T03:00:51.365Z,47.70
2023-05-06T03:01:51.293Z,47.53
2023-05-06T03:02:51.285Z,47.86
2023-05-06T03:03:51.299Z,47.37
2023-05-06T03:04:51.251Z,48.82
2023-05-06T03:05:51.246Z,48.50
2023-05-06T03:06:51.251Z,48.34
2023-05-06T03:07:51.227Z,46.73
2023-05-06T03:08:51.231Z,49.31
2023-05-06T03:09:51.239Z,48.02
2023-05-06T03:10:51.232Z,47.21
2023-05-06T03:11:51.216Z,47.86
2023-05-06T03:12:51.245Z,46.41
2023-05-06T03:13:51.205Z,46.89
2023-05-06T03:14:51.195Z,46.73
2023-05-06T03:15:51.187Z,47.53
2023-05-06T03:16:51.301Z,49.15
2023-05-06T03:17:51.198Z,48.02
2023-05-06T03:18:51.187Z,48.66
2023-05-06T03:19:51.159Z,48.98
2023-05-06T03:20:51.185Z,48.34
2023-05-06T03:21:51.142Z,48.02
2023-05-06T03:22:51.135Z,48.66
2023-05-06T03:23:51.161Z,48.18
2023-05-06T03:24:51.137Z,47.53
2023-05-06T03:25:51.128Z,50.43
2023-05-06T03:26:51.117Z,47.21
2023-05-06T03:27:51.106Z,46.57
2023-05-06T03:28:51.110Z,47.21
2023-05-06T03:29:51.099Z,46.89
2023-05-06T03:30:52.077Z,49.31
2023-05-06T03:31:52.149Z,49.63
2023-05-06T03:32:51.114Z,47.05
2023-05-06T03:33:51.085Z,49.15
2023-05-06T03:34:51.103Z,46.73
2023-05-06T03:35:51.074Z,46.89
2023-05-06T03:36:51.074Z,49.79
2023-05-06T03:37:51.048Z,48.50
2023-05-06T03:38:51.415Z,50.43
2023-05-06T03:39:51.034Z,47.86
2023-05-06T03:40:51.120Z,50.43
2023-05-06T03:41:52.163Z,49.31
2023-05-06T03:42:51.115Z,47.37
2023-05-06T03:43:51.095Z,47.37
2023-05-06T03:44:51.004Z,49.47
2023-05-06T03:45:51.050Z,49.47
2023-05-06T03:46:51.000Z,48.66
2023-05-06T03:47:51.100Z,48.82
2023-05-06T03:48:50.975Z,48.34
2023-05-06T03:49:50.961Z,45.76
2023-05-06T03:50:51.016Z,47.37
2023-05-06T03:51:50.952Z,48.34
2023-05-06T03:52:50.962Z,48.66
2023-05-06T03:53:52.997Z,48.66
2023-05-06T03:54:50.934Z,50.11
2023-05-06T03:55:50.949Z,50.27
2023-05-06T03:56:50.967Z,50.92
2023-05-06T03:57:50.930Z,51.88
2023-05-06T03:58:50.909Z,51.08
2023-05-06T03:59:50.903Z,48.02
2023-05-06T04:00:51.096Z,45.28
2023-05-06T04:01:50.918Z,46.08
2023-05-06T04:02:50.930Z,51.40
2023-05-06T04:03:50.887Z,49.31
2023-05-06T04:04:50.879Z,49.15
2023-05-06T04:05:50.961Z,48.82
2023-05-06T04:06:50.869Z,50.43
2023-05-06T04:07:50.871Z,47.86
2023-05-06T04:08:50.850Z,52.53
2023-05-06T04:09:50.847Z,50.43
2023-05-06T04:10:50.873Z,49.15
2023-05-06T04:11:50.825Z,50.11
2023-05-06T04:12:50.849Z,49.15
2023-05-06T04:13:50.829Z,50.92
2023-05-06T04:14:50.812Z,50.11
2023-05-06T04:15:50.814Z,50.43
2023-05-06T04:16:50.901Z,50.92
2023-05-06T04:17:50.813Z,51.24
2023-05-06T04:18:50.785Z,50.92
2023-05-06T04:19:50.781Z,52.69
2023-05-06T04:20:50.769Z,52.53
2023-05-06T04:21:50.781Z,48.98
2023-05-06T04:22:50.756Z,49.63
2023-05-06T04:23:50.776Z,49.63
2023-05-06T04:24:50.768Z,49.15
2023-05-06T04:25:50.758Z,48.02
2023-05-06T04:26:50.744Z,51.88
2023-05-06T04:27:50.731Z,47.70
2023-05-06T04:28:50.726Z,50.27
2023-05-06T04:29:50.742Z,51.72
2023-05-06T04:30:50.695Z,52.53
2023-05-06T04:31:51.757Z,51.08
2023-05-06T04:32:50.808Z,50.11
2023-05-06T04:33:50.691Z,50.92
2023-05-06T04:34:50.694Z,53.33
2023-05-06T04:35:50.682Z,52.53
2023-05-06T04:36:50.680Z,51.40
2023-05-06T04:37:50.675Z,53.50
2023-05-06T04:38:50.656Z,50.60
2023-05-06T04:39:51.667Z,50.43
2023-05-06T04:40:50.649Z,54.30
2023-05-06T04:41:50.648Z,52.37
2023-05-06T04:42:50.653Z,53.66
2023-05-06T04:43:50.642Z,55.59
2023-05-06T04:44:50.628Z,50.92
2023-05-06T04:45:50.674Z,53.98
2023-05-06T04:46:50.616Z,52.53
2023-05-06T04:47:50.633Z,50.76
2023-05-06T04:48:50.730Z,52.05
2023-05-06T04:49:50.589Z,50.60
2023-05-06T04:50:50.603Z,52.85
2023-05-06T04:51:50.580Z,49.79
2023-05-06T04:52:50.584Z,49.63
2023-05-06T04:53:50.564Z,49.47
2023-05-06T04:54:50.599Z,49.79
2023-05-06T04:55:50.561Z,47.37
2023-05-06T04:56:50.559Z,49.63
2023-05-06T04:57:50.563Z,50.60
2023-05-06T04:58:50.550Z,55.11
2023-05-06T04:59:50.554Z,55.75
2023-05-06T05:00:50.517Z,50.92
2023-05-06T05:01:50.709Z,50.76
2023-05-06T05:02:50.697Z,51.40
2023-05-06T05:03:50.553Z,51.56
2023-05-06T05:04:50.594Z,49.79
2023-05-06T05:05:50.495Z,50.60
2023-05-06T05:06:50.482Z,49.31
2023-05-06T05:07:50.496Z,53.82
2023-05-06T05:08:50.530Z,50.76
2023-05-06T05:09:50.464Z,51.40
2023-05-06T05:10:50.462Z,52.21
2023-05-06T05:11:50.493Z,53.33
2023-05-06T05:12:50.460Z,48.98
2023-05-06T05:13:50.455Z,48.98
2023-05-06T05:14:50.432Z,50.27
2023-05-06T05:15:50.438Z,50.11
2023-05-06T05:16:50.483Z,49.79
2023-05-06T05:17:50.459Z,51.88
2023-05-06T05:18:50.409Z,52.37
2023-05-06T05:19:50.453Z,50.11
2023-05-06T05:20:50.467Z,54.14
2023-05-06T05:21:50.406Z,51.24
2023-05-06T05:22:50.390Z,52.53
2023-05-06T05:23:50.523Z,52.21
2023-05-06T05:24:50.404Z,49.15
2023-05-06T05:25:50.375Z,49.63
2023-05-06T05:26:50.363Z,51.24
2023-05-06T05:27:50.352Z,52.37
2023-05-06T05:28:50.358Z,49.31
2023-05-06T05:29:50.354Z,49.47
2023-05-06T05:30:50.426Z,49.47
2023-05-06T05:31:50.354Z,49.95
2023-05-06T05:32:50.394Z,51.40
2023-05-06T05:33:50.420Z,51.40
2023-05-06T05:34:50.314Z,49.15
2023-05-06T05:35:50.304Z,51.40
2023-05-06T05:36:50.319Z,51.56
2023-05-06T05:37:50.295Z,53.82
2023-05-06T05:38:50.328Z,51.24
2023-05-06T05:39:50.291Z,49.15
2023-05-06T05:40:50.288Z,52.37
2023-05-06T05:41:50.272Z,49.47
2023-05-06T05:42:50.260Z,49.79
2023-05-06T05:43:50.263Z,52.05
2023-05-06T05:44:50.257Z,49.79
2023-05-06T05:45:50.241Z,50.11
2023-05-06T05:46:50.261Z,51.56
2023-05-06T05:47:50.261Z,54.30
2023-05-06T05:48:50.223Z,53.17
2023-05-06T05:49:50.243Z,50.60
2023-05-06T05:50:50.212Z,52.21
2023-05-06T05:51:50.243Z,49.95
2023-05-06T05:52:50.378Z,51.88
2023-05-06T05:53:50.187Z,50.11
2023-05-06T05:54:50.212Z,53.50
2023-05-06T05:55:50.170Z,48.66
2023-05-06T05:56:50.171Z,49.63
2023-05-06T05:57:50.158Z,50.60
2023-05-06T05:58:50.152Z,50.27
2023-05-06T05:59:50.174Z,49.79
2023-05-06T06:00:50.163Z,47.70
2023-05-06T06:01:50.144Z,48.66
2023-05-06T06:02:50.163Z,50.11
2023-05-06T06:03:50.402Z,48.82
2023-05-06T06:04:50.155Z,48.66
2023-05-06T06:05:50.111Z,47.37
2023-05-06T06:06:50.110Z,47.53
2023-05-06T06:07:50.104Z,48.82
2023-05-06T06:08:50.222Z,48.82
2023-05-06T06:09:50.072Z,49.95
2023-05-06T06:10:50.071Z,46.41
2023-05-06T06:11:51.055Z,46.25
2023-05-06T06:12:50.100Z,50.27
2023-05-06T06:13:50.053Z,51.56
2023-05-06T06:14:50.038Z,49.47
2023-05-06T06:15:50.095Z,49.15
2023-05-06T06:16:50.029Z,50.60
2023-05-06T06:17:50.098Z,49.95
2023-05-06T06:18:50.023Z,52.05
2023-05-06T06:19:49.993Z,47.70
2023-05-06T06:20:52.503Z,49.95
2023-05-06T06:21:49.979Z,52.37
2023-05-06T06:22:49.976Z,49.63
2023-05-06T06:23:49.976Z,50.60
2023-05-06T06:24:50.150Z,49.95
2023-05-06T06:25:49.960Z,49.95
2023-05-06T06:26:49.951Z,47.37
2023-05-06T06:27:49.936Z,49.63
2023-05-06T06:28:49.936Z,48.34
2023-05-06T06:29:49.941Z,47.21
2023-05-06T06:30:49.922Z,46.41
2023-05-06T06:31:49.962Z,52.05
2023-05-06T06:32:49.947Z,48.82
2023-05-06T06:33:49.921Z,47.37
2023-05-06T06:34:50.032Z,48.02
2023-05-06T06:35:49.873Z,48.18
2023-05-06T06:36:49.887Z,47.86
2023-05-06T06:37:49.882Z,48.98
2023-05-06T06:38:49.860Z,48.50
2023-05-06T06:39:49.854Z,47.05
2023-05-06T06:40:49.861Z,45.44
2023-05-06T06:41:49.841Z,51.08
2023-05-06T06:42:49.854Z,50.76
2023-05-06T06:43:49.841Z,51.72
2023-05-06T06:44:49.825Z,48.50
2023-05-06T06:45:49.830Z,50.60
2023-05-06T06:46:50.808Z,46.41
2023-05-06T06:47:49.835Z,45.60
2023-05-06T06:48:49.801Z,49.79
2023-05-06T06:49:49.782Z,48.66
2023-05-06T06:50:49.772Z,47.53
2023-05-06T06:51:49.765Z,50.43
2023-05-06T06:52:49.784Z,46.89
2023-05-06T06:53:49.754Z,50.43
2023-05-06T06:54:49.756Z,51.24
2023-05-06T06:55:49.737Z,50.27
2023-05-06T06:56:49.738Z,50.11
2023-05-06T06:57:49.740Z,51.56
2023-05-06T06:58:51.263Z,51.40
2023-05-06T06:59:49.725Z,48.82
2023-05-06T07:00:49.736Z,46.41
2023-05-06T07:01:50.708Z,45.44
2023-05-06T07:02:49.782Z,46.25
2023-05-06T07:03:49.937Z,45.76
2023-05-06T07:04:49.687Z,48.18
2023-05-06T07:05:49.689Z,49.63
2023-05-06T07:06:49.676Z,48.66
2023-05-06T07:07:49.673Z,48.18
2023-05-06T07:08:49.690Z,50.43
2023-05-06T07:09:49.662Z,49.47
2023-05-06T07:10:49.649Z,51.08
2023-05-06T07:11:49.641Z,48.50
2023-05-06T07:12:49.685Z,48.50
2023-05-06T07:13:49.629Z,49.79
2023-05-06T07:14:49.625Z,49.79
2023-05-06T07:15:49.597Z,48.02
2023-05-06T07:16:51.448Z,48.66
2023-05-06T07:17:49.615Z,49.15
2023-05-06T07:18:49.584Z,50.27
2023-05-06T07:19:49.589Z,49.47
2023-05-06T07:20:49.595Z,49.31
2023-05-06T07:21:49.933Z,52.21
2023-05-06T07:22:49.587Z,49.47
2023-05-06T07:23:49.567Z,48.02
2023-05-06T07:24:49.564Z,51.24
2023-05-06T07:25:49.548Z,50.27
2023-05-06T07:26:49.535Z,48.50
2023-05-06T07:27:49.547Z,48.18
2023-05-06T07:28:49.522Z,49.95
2023-05-06T07:29:49.510Z,50.11
2023-05-06T07:30:49.536Z,51.72
2023-05-06T07:31:49.521Z,49.15
2023-05-06T07:32:49.562Z,48.50
2023-05-06T07:33:49.491Z,46.57
2023-05-06T07:34:49.481Z,47.86
2023-05-06T07:35:49.463Z,48.82
2023-05-06T07:36:49.464Z,51.72
2023-05-06T07:37:49.464Z,52.21
2023-05-06T07:38:50.458Z,53.01
2023-05-06T07:39:49.477Z,53.50
2023-05-06T07:40:49.448Z,52.69
2023-05-06T07:41:49.439Z,49.95
2023-05-06T07:42:49.435Z,52.85
2023-05-06T07:43:49.419Z,52.53
2023-05-06T07:44:49.492Z,51.88
2023-05-06T07:45:49.411Z,52.37
2023-05-06T07:46:49.543Z,52.69
2023-05-06T07:47:49.580Z,54.79
2023-05-06T07:48:49.408Z,50.43
2023-05-06T07:49:49.376Z,49.63
2023-05-06T07:50:49.420Z,50.11
2023-05-06T07:51:49.393Z,50.60
2023-05-06T07:52:49.364Z,49.63
2023-05-06T07:53:49.364Z,49.95
2023-05-06T07:54:49.362Z,50.60
2023-05-06T07:55:49.347Z,49.63
2023-05-06T07:56:49.344Z,49.47
2023-05-06T07:57:49.332Z,52.05
2023-05-06T07:58:49.330Z,52.53
2023-05-06T07:59:49.368Z,51.24
2023-05-06T08:00:49.316Z,53.17
2023-05-06T08:01:50.305Z,53.01
2023-05-06T08:02:49.381Z,53.33
2023-05-06T08:03:49.483Z,49.63
2023-05-06T08:04:51.033Z,49.15
2023-05-06T08:05:50.405Z,50.43
2023-05-06T08:06:49.277Z,51.08
2023-05-06T08:07:49.267Z,52.53
2023-05-06T08:08:49.257Z,51.08
2023-05-06T08:09:49.258Z,49.63
2023-05-06T08:10:49.250Z,48.82
2023-05-06T08:11:49.254Z,49.47
2023-05-06T08:12:49.280Z,50.60
2023-05-06T08:13:49.227Z,49.15
2023-05-06T08:14:49.233Z,50.43
2023-05-06T08:15:49.268Z,48.34
2023-05-06T08:16:49.319Z,48.18
2023-05-06T08:17:49.263Z,48.82
2023-05-06T08:18:49.195Z,48.02
2023-05-06T08:19:49.187Z,48.66
2023-05-06T08:20:49.192Z,48.34
2023-05-06T08:21:49.184Z,48.18
2023-05-06T08:22:49.176Z,49.79
2023-05-06T08:23:49.166Z,49.79
2023-05-06T08:24:49.163Z,48.34
2023-05-06T08:25:49.154Z,49.47
2023-05-06T08:26:49.179Z,48.82
2023-05-06T08:27:49.135Z,49.31
2023-05-06T08:28:49.144Z,47.86
2023-05-06T08:29:49.125Z,47.37
2023-05-06T08:30:49.112Z,45.76
2023-05-06T08:31:50.174Z,46.41
2023-05-06T08:32:49.292Z,47.21
2023-05-06T08:33:49.109Z,48.82
2023-05-06T08:34:49.110Z,46.08
2023-05-06T08:35:49.098Z,47.05
2023-05-06T08:36:49.083Z,47.37
2023-05-06T08:37:49.087Z,49.31
2023-05-06T08:38:49.074Z,47.37
2023-05-06T08:39:50.064Z,49.63
2023-05-06T08:40:49.070Z,49.47
2023-05-06T08:41:49.058Z,49.15
2023-05-06T08:42:49.070Z,47.86
2023-05-06T08:43:49.072Z,48.98
2023-05-06T08:44:49.045Z,48.34
2023-05-06T08:45:49.059Z,49.15
2023-05-06T08:46:49.034Z,49.63
2023-05-06T08:47:49.062Z,48.82
2023-05-06T08:48:49.085Z,47.37
2023-05-06T08:49:49.007Z,47.37
2023-05-06T08:50:49.018Z,48.50
2023-05-06T08:51:49.012Z,49.79
2023-05-06T08:52:48.998Z,48.50
2023-05-06T08:53:48.992Z,46.89
2023-05-06T08:54:48.998Z,47.86
2023-05-06T08:55:48.973Z,46.89
2023-05-06T08:56:48.971Z,46.73
2023-05-06T08:57:48.957Z,46.25
2023-05-06T08:58:48.967Z,47.86
2023-05-06T08:59:48.950Z,46.89
2023-05-06T09:00:48.974Z,48.50
2023-05-06T09:01:48.965Z,48.34
2023-05-06T09:02:49.004Z,48.50
2023-05-06T09:03:48.955Z,47.70
2023-05-06T09:04:48.915Z,46.25
2023-05-06T09:05:48.902Z,44.63
2023-05-06T09:06:48.932Z,43.67
2023-05-06T09:07:48.899Z,46.57
2023-05-06T09:08:48.891Z,44.79
2023-05-06T09:09:48.886Z,46.73
2023-05-06T09:10:48.872Z,47.86
2023-05-06T09:11:48.867Z,45.12
2023-05-06T09:12:48.889Z,46.89
2023-05-06T09:13:48.932Z,46.41
2023-05-06T09:14:48.930Z,47.86
2023-05-06T09:15:48.847Z,47.05
2023-05-06T09:16:48.860Z,45.28
2023-05-06T09:17:48.887Z,46.25
2023-05-06T09:18:48.829Z,44.79
2023-05-06T09:19:48.836Z,46.25
2023-05-06T09:20:48.896Z,48.82
2023-05-06T09:21:48.800Z,49.31
2023-05-06T09:22:48.799Z,46.25
2023-05-06T09:23:48.791Z,45.76
2023-05-06T09:24:48.813Z,45.92
2023-05-06T09:25:48.823Z,45.60
2023-05-06T09:26:48.782Z,45.28
2023-05-06T09:27:48.769Z,44.63
2023-05-06T09:28:48.767Z,44.31
2023-05-06T09:29:48.754Z,47.86
2023-05-06T09:30:48.790Z,47.05
2023-05-06T09:31:48.742Z,44.31
2023-05-06T09:32:48.762Z,46.89
2023-05-06T09:33:48.737Z,46.25
2023-05-06T09:34:48.758Z,46.57
2023-05-06T09:35:48.727Z,48.02
2023-05-06T09:36:48.746Z,46.89
2023-05-06T09:37:48.742Z,47.37
2023-05-06T09:38:48.772Z,46.08
2023-05-06T09:39:48.708Z,47.70
2023-05-06T09:40:48.709Z,46.41
2023-05-06T09:41:48.704Z,45.60
2023-05-06T09:42:48.676Z,46.89
2023-05-06T09:43:48.689Z,47.70
2023-05-06T09:44:48.658Z,45.28
2023-05-06T09:45:48.748Z,47.70
2023-05-06T09:46:48.713Z,46.08
2023-05-06T09:47:48.701Z,47.05
2023-05-06T09:48:48.649Z,44.96
2023-05-06T09:49:48.653Z,47.53
2023-05-06T09:50:48.666Z,45.60
2023-05-06T09:51:48.637Z,47.21
2023-05-06T09:52:48.729Z,47.86
2023-05-06T09:53:48.659Z,45.60
2023-05-06T09:54:48.678Z,46.89
2023-05-06T09:55:48.631Z,45.76
2023-05-06T09:56:48.597Z,46.73
2023-05-06T09:57:48.611Z,49.31
2023-05-06T09:58:48.590Z,46.41
2023-05-06T09:59:48.590Z,48.18
2023-05-06T10:00:48.587Z,48.02
2023-05-06T10:01:48.608Z,47.37
2023-05-06T10:02:48.683Z,46.41
2023-05-06T10:03:48.712Z,46.89
2023-05-06T10:04:48.781Z,47.21
2023-05-06T10:05:48.568Z,43.51
2023-05-06T10:06:48.568Z,43.67
2023-05-06T10:07:48.544Z,45.92
2023-05-06T10:08:48.540Z,47.21
2023-05-06T10:09:48.528Z,44.96
2023-05-06T10:10:48.815Z,43.18
2023-05-06T10:11:48.556Z,44.63
2023-05-06T10:12:48.613Z,46.89
2023-05-06T10:13:48.534Z,46.57
2023-05-06T10:14:48.494Z,45.28
2023-05-06T10:15:48.518Z,45.60
2023-05-06T10:16:48.494Z,45.76
2023-05-06T10:17:48.512Z,46.89
2023-05-06T10:18:48.524Z,46.57
2023-05-06T10:19:48.474Z,45.12
2023-05-06T10:20:48.470Z,45.28
2023-05-06T10:21:48.455Z,44.96
2023-05-06T10:22:48.456Z,44.79
2023-05-06T10:23:48.454Z,45.12
2023-05-06T10:24:48.538Z,43.99
2023-05-06T10:25:48.440Z,43.83
2023-05-06T10:26:48.437Z,40.93
2023-05-06T10:27:48.442Z,43.83
2023-05-06T10:28:48.421Z,43.34
2023-05-06T10:29:48.438Z,46.08
2023-05-06T10:30:48.430Z,45.60
2023-05-06T10:31:48.465Z,46.41
2023-05-06T10:32:48.435Z,48.98
2023-05-06T10:33:48.392Z,46.41
2023-05-06T10:34:48.423Z,46.41
2023-05-06T10:35:48.392Z,45.28
2023-05-06T10:36:48.369Z,44.96
2023-05-06T10:37:48.355Z,44.79
2023-05-06T10:38:48.367Z,46.25
2023-05-06T10:39:48.358Z,43.83
2023-05-06T10:40:48.360Z,44.47
2023-05-06T10:41:48.343Z,42.70
2023-05-06T10:42:48.329Z,45.28
2023-05-06T10:43:48.343Z,42.38
2023-05-06T10:44:48.330Z,45.92
2023-05-06T10:45:48.401Z,46.73
2023-05-06T10:46:48.302Z,45.28
2023-05-06T10:47:48.338Z,45.76
2023-05-06T10:48:48.311Z,44.96
2023-05-06T10:49:48.306Z,47.53
2023-05-06T10:50:48.297Z,45.44
2023-05-06T10:51:48.284Z,46.57
2023-05-06T10:52:48.275Z,45.28
2023-05-06T10:53:49.183Z,45.12
2023-05-06T10:54:48.289Z,45.76
2023-05-06T10:55:48.277Z,46.08
2023-05-06T10:56:48.326Z,47.70
2023-05-06T10:57:48.252Z,47.21
2023-05-06T10:58:48.259Z,48.18
2023-05-06T10:59:48.260Z,46.73
2023-05-06T11:00:48.245Z,46.25
2023-05-06T11:01:48.224Z,46.73
2023-05-06T11:02:48.248Z,47.86
2023-05-06T11:03:48.238Z,45.44
2023-05-06T11:04:48.218Z,44.79
2023-05-06T11:05:48.202Z,46.57
2023-05-06T11:06:48.211Z,48.18
2023-05-06T11:07:48.211Z,46.57
2023-05-06T11:08:48.188Z,47.86
2023-05-06T11:09:48.194Z,47.37
2023-05-06T11:10:48.180Z,47.21
2023-05-06T11:11:48.188Z,46.41
2023-05-06T11:12:48.278Z,47.37
2023-05-06T11:13:49.556Z,48.18
2023-05-06T11:14:48.155Z,47.53
2023-05-06T11:15:48.142Z,45.60
2023-05-06T11:16:48.163Z,44.96
2023-05-06T11:17:48.153Z,46.41
2023-05-06T11:18:48.119Z,47.86
2023-05-06T11:19:48.117Z,48.66
2023-05-06T11:20:48.114Z,49.31
2023-05-06T11:21:50.019Z,48.82
2023-05-06T11:22:49.094Z,47.53
2023-05-06T11:23:48.088Z,48.82
2023-05-06T11:24:48.090Z,50.11
2023-05-06T11:25:48.117Z,47.86
2023-05-06T11:26:48.078Z,45.76
2023-05-06T11:27:50.202Z,45.12
2023-05-06T11:28:49.127Z,45.92
2023-05-06T11:29:48.061Z,45.76
2023-05-06T11:30:48.059Z,45.28
2023-05-06T11:31:48.069Z,46.41
2023-05-06T11:32:48.092Z,45.76
2023-05-06T11:33:48.342Z,46.73
2023-05-06T11:34:48.084Z,46.89
2023-05-06T11:35:48.016Z,46.41
2023-05-06T11:36:48.019Z,46.08
2023-05-06T11:37:48.065Z,49.47
2023-05-06T11:38:48.023Z,48.34
2023-05-06T11:39:48.015Z,47.21
2023-05-06T11:40:48.003Z,47.21
2023-05-06T11:41:48.007Z,48.34
2023-05-06T11:42:47.998Z,48.82
2023-05-06T11:43:47.974Z,44.31
2023-05-06T11:44:47.974Z,47.86
2023-05-06T11:45:47.967Z,44.31
2023-05-06T11:46:48.072Z,46.73
2023-05-06T11:47:48.011Z,45.12
2023-05-06T11:48:47.959Z,45.60
2023-05-06T11:49:47.950Z,46.73
2023-05-06T11:50:47.936Z,46.73
2023-05-06T11:51:47.939Z,44.31
2023-05-06T11:52:47.946Z,45.28
2023-05-06T11:53:47.928Z,47.86
2023-05-06T11:54:50.149Z,48.34
2023-05-06T11:55:48.919Z,46.89
2023-05-06T11:56:47.907Z,45.28
2023-05-06T11:57:47.911Z,46.57
2023-05-06T11:58:48.897Z,47.86
2023-05-06T11:59:47.906Z,47.37
2023-05-06T12:00:49.667Z,46.25
2023-05-06T12:01:47.882Z,50.43
2023-05-06T12:02:47.908Z,49.79
2023-05-06T12:03:48.060Z,47.86
2023-05-06T12:04:47.932Z,47.86
2023-05-06T12:05:47.893Z,47.05
2023-05-06T12:06:47.861Z,46.08
2023-05-06T12:07:47.842Z,46.89
2023-05-06T12:08:47.833Z,44.79
2023-05-06T12:09:47.847Z,46.41
2023-05-06T12:10:47.813Z,47.05
2023-05-06T12:11:47.809Z,48.82
2023-05-06T12:12:47.846Z,48.02
2023-05-06T12:13:47.808Z,48.82
2023-05-06T12:14:47.826Z,47.05
2023-05-06T12:15:47.811Z,48.34
2023-05-06T12:16:47.894Z,49.95
2023-05-06T12:17:47.781Z,49.63
2023-05-06T12:18:47.764Z,49.31
2023-05-06T12:19:47.800Z,48.82
2023-05-06T12:20:47.763Z,49.15
2023-05-06T12:21:47.761Z,48.34
2023-05-06T12:22:47.742Z,50.27
2023-05-06T12:23:47.812Z,46.89
2023-05-06T12:24:47.797Z,49.95
2023-05-06T12:25:47.725Z,48.98
2023-05-06T12:26:47.719Z,49.31
2023-05-06T12:27:47.717Z,48.34
2023-05-06T12:28:47.708Z,50.92
2023-05-06T12:29:47.711Z,49.95
2023-05-06T12:30:47.690Z,50.27
2023-05-06T12:31:47.719Z,47.86
2023-05-06T12:32:47.713Z,49.31
2023-05-06T12:33:47.678Z,48.66
2023-05-06T12:34:47.673Z,49.15
2023-05-06T12:35:47.666Z,48.66
2023-05-06T12:36:48.654Z,51.72
2023-05-06T12:37:47.649Z,48.18
2023-05-06T12:38:47.679Z,48.50
2023-05-06T12:39:47.645Z,48.34
2023-05-06T12:40:47.666Z,49.31
2023-05-06T12:41:47.626Z,48.82
2023-05-06T12:42:47.617Z,48.34
2023-05-06T12:43:47.680Z,48.34
2023-05-06T12:44:47.604Z,48.98
2023-05-06T12:45:47.669Z,47.05
2023-05-06T12:46:47.590Z,49.63
2023-05-06T12:47:47.602Z,48.34
2023-05-06T12:48:47.637Z,47.70
2023-05-06T12:49:47.565Z,50.43
2023-05-06T12:50:47.555Z,48.82
2023-05-06T12:51:47.834Z,46.41
2023-05-06T12:52:48.562Z,48.98